sensor_id;sensor_type;location;lat;lon;timestamp;P1;durP1;ratioP1;P2;durP2;ratioP2
5987;SDS011;3021;51.000;6.980;2023-02-01T00:01:08;32.63;;;10.73;;
5987;SDS011;3021;51.000;6.980;2023-02-01T00:03:34;38.03;;;10.95;;
5987;SDS011;3021;51.000;6.980;2023-02-01T00:06:00;34.63;;;11.50;;
5987;SDS011;3021;51.000;6.980;2023-02-01T00:08:26;31.42;;;11.52;;
5987;SDS011;3021;51.000;6.980;2023-02-01T00:10:58;34.90;;;12.88;;
5987;SDS011;3021;51.000;6.980;2023-02-01T00:13:29;38.53;;;12.70;;
5987;SDS011;3021;51.000;6.980;2023-02-01T00:16:01;33.92;;;12.10;;
5987;SDS011;3021;51.000;6.980;2023-02-01T00:18:30;38.90;;;12.25;;
5987;SDS011;3021;51.000;6.980;2023-02-01T00:20:56;41.10;;;11.82;;
5987;SDS011;3021;51.000;6.980;2023-02-01T00:23:21;38.70;;;13.00;;
5987;SDS011;3021;51.000;6.980;2023-02-01T00:25:46;37.38;;;13.18;;
5987;SDS011;3021;51.000;6.980;2023-02-01T00:28:12;29.48;;;12.25;;
5987;SDS011;3021;51.000;6.980;2023-02-01T00:30:37;37.22;;;13.63;;
5987;SDS011;3021;51.000;6.980;2023-02-01T00:33:03;36.05;;;12.63;;
5987;SDS011;3021;51.000;6.980;2023-02-01T00:35:29;32.70;;;12.30;;
5987;SDS011;3021;51.000;6.980;2023-02-01T00:37:54;34.15;;;12.02;;
5987;SDS011;3021;51.000;6.980;2023-02-01T00:40:19;26.15;;;11.43;;
5987;SDS011;3021;51.000;6.980;2023-02-01T00:42:45;32.53;;;11.50;;
5987;SDS011;3021;51.000;6.980;2023-02-01T00:45:10;29.42;;;10.40;;
5987;SDS011;3021;51.000;6.980;2023-02-01T00:47:35;34.47;;;9.75;;
5987;SDS011;3021;51.000;6.980;2023-02-01T00:50:01;26.23;;;9.85;;
5987;SDS011;3021;51.000;6.980;2023-02-01T00:52:26;29.00;;;9.43;;
5987;SDS011;3021;51.000;6.980;2023-02-01T00:54:51;25.23;;;9.35;;
5987;SDS011;3021;51.000;6.980;2023-02-01T00:57:16;23.60;;;8.77;;
5987;SDS011;3021;51.000;6.980;2023-02-01T00:59:42;22.40;;;8.38;;
5987;SDS011;3021;51.000;6.980;2023-02-01T01:02:07;29.75;;;8.90;;
5987;SDS011;3021;51.000;6.980;2023-02-01T01:04:32;28.48;;;8.85;;
5987;SDS011;3021;51.000;6.980;2023-02-01T01:06:58;23.27;;;7.97;;
5987;SDS011;3021;51.000;6.980;2023-02-01T01:09:23;22.40;;;7.05;;
5987;SDS011;3021;51.000;6.980;2023-02-01T01:11:48;25.77;;;7.00;;
5987;SDS011;3021;51.000;6.980;2023-02-01T01:14:16;28.80;;;8.27;;
5987;SDS011;3021;51.000;6.980;2023-02-01T01:16:41;24.75;;;6.93;;
5987;SDS011;3021;51.000;6.980;2023-02-01T01:19:07;24.02;;;7.10;;
5987;SDS011;3021;51.000;6.980;2023-02-01T01:21:32;28.65;;;6.32;;
5987;SDS011;3021;51.000;6.980;2023-02-01T01:23:57;23.67;;;6.82;;
5987;SDS011;3021;51.000;6.980;2023-02-01T01:26:24;20.88;;;6.10;;
5987;SDS011;3021;51.000;6.980;2023-02-01T01:28:52;28.73;;;5.70;;
5987;SDS011;3021;51.000;6.980;2023-02-01T01:31:20;24.33;;;5.57;;
5987;SDS011;3021;51.000;6.980;2023-02-01T01:33:50;29.85;;;7.38;;
5987;SDS011;3021;51.000;6.980;2023-02-01T01:36:16;27.17;;;6.90;;
5987;SDS011;3021;51.000;6.980;2023-02-01T01:38:42;27.98;;;6.68;;
5987;SDS011;3021;51.000;6.980;2023-02-01T01:41:08;24.27;;;6.68;;
5987;SDS011;3021;51.000;6.980;2023-02-01T01:43:49;28.80;;;6.32;;
5987;SDS011;3021;51.000;6.980;2023-02-01T01:49:06;20.92;;;5.85;;
5987;SDS011;3021;51.000;6.980;2023-02-01T01:51:39;22.10;;;5.53;;
5987;SDS011;3021;51.000;6.980;2023-02-01T01:54:18;26.05;;;6.05;;
5987;SDS011;3021;51.000;6.980;2023-02-01T01:56:50;17.33;;;5.93;;
5987;SDS011;3021;51.000;6.980;2023-02-01T01:59:19;20.52;;;5.10;;
5987;SDS011;3021;51.000;6.980;2023-02-01T02:01:46;27.60;;;6.13;;
5987;SDS011;3021;51.000;6.980;2023-02-01T02:04:11;28.85;;;5.38;;
5987;SDS011;3021;51.000;6.980;2023-02-01T02:06:42;31.73;;;5.88;;
5987;SDS011;3021;51.000;6.980;2023-02-01T02:09:13;21.65;;;5.55;;
5987;SDS011;3021;51.000;6.980;2023-02-01T02:11:39;21.15;;;5.88;;
5987;SDS011;3021;51.000;6.980;2023-02-01T02:14:05;21.73;;;4.90;;
5987;SDS011;3021;51.000;6.980;2023-02-01T02:33:32;24.17;;;6.22;;
5987;SDS011;3021;51.000;6.980;2023-02-01T02:35:43;23.63;;;5.53;;
5987;SDS011;3021;51.000;6.980;2023-02-01T02:44:09;19.33;;;5.30;;
5987;SDS011;3021;51.000;6.980;2023-02-01T02:47:02;18.05;;;4.57;;
5987;SDS011;3021;51.000;6.980;2023-02-01T02:50:00;25.10;;;5.65;;
5987;SDS011;3021;51.000;6.980;2023-02-01T02:53:03;20.00;;;5.65;;
5987;SDS011;3021;51.000;6.980;2023-02-01T02:56:00;25.60;;;5.93;;
5987;SDS011;3021;51.000;6.980;2023-02-01T02:58:47;20.83;;;5.38;;
5987;SDS011;3021;51.000;6.980;2023-02-01T03:01:32;22.45;;;6.03;;
5987;SDS011;3021;51.000;6.980;2023-02-01T03:04:16;26.63;;;5.97;;
5987;SDS011;3021;51.000;6.980;2023-02-01T03:06:46;20.90;;;5.63;;
5987;SDS011;3021;51.000;6.980;2023-02-01T03:09:23;28.73;;;6.13;;
5987;SDS011;3021;51.000;6.980;2023-02-01T03:11:50;19.35;;;5.70;;
5987;SDS011;3021;51.000;6.980;2023-02-01T03:14:39;27.95;;;6.50;;
5987;SDS011;3021;51.000;6.980;2023-02-01T03:17:14;22.48;;;6.25;;
5987;SDS011;3021;51.000;6.980;2023-02-01T03:19:46;22.05;;;6.45;;
5987;SDS011;3021;51.000;6.980;2023-02-01T03:22:22;21.13;;;6.88;;
5987;SDS011;3021;51.000;6.980;2023-02-01T03:24:55;28.00;;;7.68;;
5987;SDS011;3021;51.000;6.980;2023-02-01T03:27:26;20.48;;;7.97;;
5987;SDS011;3021;51.000;6.980;2023-02-01T03:32:23;27.27;;;7.40;;
5987;SDS011;3021;51.000;6.980;2023-02-01T03:34:49;23.38;;;6.97;;
5987;SDS011;3021;51.000;6.980;2023-02-01T03:37:16;27.13;;;8.63;;
5987;SDS011;3021;51.000;6.980;2023-02-01T03:40:04;27.08;;;6.45;;
5987;SDS011;3021;51.000;6.980;2023-02-01T03:45:04;27.38;;;7.30;;
5987;SDS011;3021;51.000;6.980;2023-02-01T03:47:41;26.23;;;6.85;;
5987;SDS011;3021;51.000;6.980;2023-02-01T03:50:10;26.08;;;7.20;;
5987;SDS011;3021;51.000;6.980;2023-02-01T03:52:44;26.58;;;7.65;;
5987;SDS011;3021;51.000;6.980;2023-02-01T03:55:14;27.88;;;6.88;;
5987;SDS011;3021;51.000;6.980;2023-02-01T03:57:43;28.90;;;7.40;;
5987;SDS011;3021;51.000;6.980;2023-02-01T04:00:21;25.65;;;7.57;;
5987;SDS011;3021;51.000;6.980;2023-02-01T04:02:49;25.45;;;6.75;;
5987;SDS011;3021;51.000;6.980;2023-02-01T04:05:15;26.23;;;7.32;;
5987;SDS011;3021;51.000;6.980;2023-02-01T04:07:40;21.83;;;6.38;;
5987;SDS011;3021;51.000;6.980;2023-02-01T04:10:06;27.92;;;6.78;;
5987;SDS011;3021;51.000;6.980;2023-02-01T04:12:32;23.17;;;6.78;;
5987;SDS011;3021;51.000;6.980;2023-02-01T04:14:57;23.98;;;6.47;;
5987;SDS011;3021;51.000;6.980;2023-02-01T04:17:23;27.50;;;6.18;;
5987;SDS011;3021;51.000;6.980;2023-02-01T04:19:48;18.90;;;6.72;;
5987;SDS011;3021;51.000;6.980;2023-02-01T04:22:14;31.83;;;7.10;;
5987;SDS011;3021;51.000;6.980;2023-02-01T04:24:39;25.63;;;7.15;;
5987;SDS011;3021;51.000;6.980;2023-02-01T04:27:04;23.95;;;6.38;;
5987;SDS011;3021;51.000;6.980;2023-02-01T04:29:30;27.92;;;6.10;;
5987;SDS011;3021;51.000;6.980;2023-02-01T04:31:55;26.40;;;5.90;;
5987;SDS011;3021;51.000;6.980;2023-02-01T04:34:20;22.67;;;6.63;;
5987;SDS011;3021;51.000;6.980;2023-02-01T04:36:47;22.40;;;5.32;;
5987;SDS011;3021;51.000;6.980;2023-02-01T04:39:13;21.40;;;5.35;;
5987;SDS011;3021;51.000;6.980;2023-02-01T04:41:39;28.08;;;5.38;;
5987;SDS011;3021;51.000;6.980;2023-02-01T04:44:04;27.40;;;6.30;;
5987;SDS011;3021;51.000;6.980;2023-02-01T04:46:29;24.40;;;5.80;;
5987;SDS011;3021;51.000;6.980;2023-02-01T04:48:55;24.50;;;6.13;;
5987;SDS011;3021;51.000;6.980;2023-02-01T04:51:20;18.73;;;5.57;;
5987;SDS011;3021;51.000;6.980;2023-02-01T04:53:45;20.85;;;5.40;;
5987;SDS011;3021;51.000;6.980;2023-02-01T04:56:11;22.40;;;5.22;;
5987;SDS011;3021;51.000;6.980;2023-02-01T04:58:36;23.05;;;6.30;;
5987;SDS011;3021;51.000;6.980;2023-02-01T05:01:02;26.08;;;6.13;;
5987;SDS011;3021;51.000;6.980;2023-02-01T05:03:29;22.80;;;5.32;;
5987;SDS011;3021;51.000;6.980;2023-02-01T05:05:55;25.85;;;5.78;;
5987;SDS011;3021;51.000;6.980;2023-02-01T05:08:20;22.20;;;5.35;;
5987;SDS011;3021;51.000;6.980;2023-02-01T05:10:47;21.92;;;5.35;;
5987;SDS011;3021;51.000;6.980;2023-02-01T05:13:13;28.55;;;5.53;;
5987;SDS011;3021;51.000;6.980;2023-02-01T05:15:56;25.90;;;5.90;;
5987;SDS011;3021;51.000;6.980;2023-02-01T05:18:22;22.00;;;5.82;;
5987;SDS011;3021;51.000;6.980;2023-02-01T05:20:47;21.67;;;4.72;;
5987;SDS011;3021;51.000;6.980;2023-02-01T05:23:12;27.50;;;5.80;;
5987;SDS011;3021;51.000;6.980;2023-02-01T05:25:38;27.17;;;5.45;;
5987;SDS011;3021;51.000;6.980;2023-02-01T05:28:03;26.58;;;6.18;;
5987;SDS011;3021;51.000;6.980;2023-02-01T05:30:28;25.67;;;4.30;;
5987;SDS011;3021;51.000;6.980;2023-02-01T05:32:54;17.98;;;4.32;;
5987;SDS011;3021;51.000;6.980;2023-02-01T05:35:19;22.10;;;5.28;;
5987;SDS011;3021;51.000;6.980;2023-02-01T05:37:45;27.38;;;6.18;;
5987;SDS011;3021;51.000;6.980;2023-02-01T05:40:10;24.33;;;5.45;;
5987;SDS011;3021;51.000;6.980;2023-02-01T05:42:36;27.08;;;5.03;;
5987;SDS011;3021;51.000;6.980;2023-02-01T05:45:02;28.65;;;6.13;;
5987;SDS011;3021;51.000;6.980;2023-02-01T05:47:30;26.10;;;4.85;;
5987;SDS011;3021;51.000;6.980;2023-02-01T05:49:55;25.92;;;4.82;;
5987;SDS011;3021;51.000;6.980;2023-02-01T05:52:21;23.08;;;5.47;;
5987;SDS011;3021;51.000;6.980;2023-02-01T05:54:46;30.33;;;5.38;;
5987;SDS011;3021;51.000;6.980;2023-02-01T05:57:12;20.15;;;4.82;;
5987;SDS011;3021;51.000;6.980;2023-02-01T05:59:38;23.58;;;5.50;;
5987;SDS011;3021;51.000;6.980;2023-02-01T06:02:06;33.50;;;4.95;;
5987;SDS011;3021;51.000;6.980;2023-02-01T06:04:32;22.92;;;4.97;;
5987;SDS011;3021;51.000;6.980;2023-02-01T06:06:57;22.67;;;5.65;;
5987;SDS011;3021;51.000;6.980;2023-02-01T06:09:22;25.65;;;5.30;;
5987;SDS011;3021;51.000;6.980;2023-02-01T06:11:48;21.80;;;4.72;;
5987;SDS011;3021;51.000;6.980;2023-02-01T06:14:13;18.75;;;4.43;;
5987;SDS011;3021;51.000;6.980;2023-02-01T06:16:38;23.90;;;5.07;;
5987;SDS011;3021;51.000;6.980;2023-02-01T06:19:04;19.13;;;4.57;;
5987;SDS011;3021;51.000;6.980;2023-02-01T06:21:29;23.08;;;4.88;;
5987;SDS011;3021;51.000;6.980;2023-02-01T06:23:54;17.17;;;4.40;;
5987;SDS011;3021;51.000;6.980;2023-02-01T06:26:22;29.65;;;5.30;;
5987;SDS011;3021;51.000;6.980;2023-02-01T06:28:47;21.40;;;5.18;;
5987;SDS011;3021;51.000;6.980;2023-02-01T06:31:13;29.77;;;5.20;;
5987;SDS011;3021;51.000;6.980;2023-02-01T06:33:38;35.63;;;5.75;;
5987;SDS011;3021;51.000;6.980;2023-02-01T06:36:05;27.58;;;5.75;;
5987;SDS011;3021;51.000;6.980;2023-02-01T06:38:32;30.92;;;6.43;;
5987;SDS011;3021;51.000;6.980;2023-02-01T06:41:01;25.35;;;5.50;;
5987;SDS011;3021;51.000;6.980;2023-02-01T06:43:28;27.85;;;5.32;;
5987;SDS011;3021;51.000;6.980;2023-02-01T06:45:58;29.70;;;5.78;;
5987;SDS011;3021;51.000;6.980;2023-02-01T06:48:28;20.30;;;4.68;;
5987;SDS011;3021;51.000;6.980;2023-02-01T06:50:53;27.55;;;5.25;;
5987;SDS011;3021;51.000;6.980;2023-02-01T06:53:19;23.85;;;5.07;;
5987;SDS011;3021;51.000;6.980;2023-02-01T06:58:39;24.40;;;5.40;;
5987;SDS011;3021;51.000;6.980;2023-02-01T07:01:04;25.48;;;5.43;;
5987;SDS011;3021;51.000;6.980;2023-02-01T07:03:30;24.15;;;5.78;;
5987;SDS011;3021;51.000;6.980;2023-02-01T07:05:56;27.80;;;5.70;;
5987;SDS011;3021;51.000;6.980;2023-02-01T07:08:25;29.55;;;5.85;;
5987;SDS011;3021;51.000;6.980;2023-02-01T07:10:52;20.02;;;4.30;;
5987;SDS011;3021;51.000;6.980;2023-02-01T07:13:18;25.85;;;5.30;;
5987;SDS011;3021;51.000;6.980;2023-02-01T07:15:43;27.55;;;5.38;;
5987;SDS011;3021;51.000;6.980;2023-02-01T07:18:08;26.52;;;4.97;;
5987;SDS011;3021;51.000;6.980;2023-02-01T07:20:34;32.75;;;5.25;;
5987;SDS011;3021;51.000;6.980;2023-02-01T07:22:59;21.60;;;4.82;;
5987;SDS011;3021;51.000;6.980;2023-02-01T07:25:24;19.67;;;4.90;;
5987;SDS011;3021;51.000;6.980;2023-02-01T07:27:50;19.52;;;5.05;;
5987;SDS011;3021;51.000;6.980;2023-02-01T07:30:15;32.20;;;4.55;;
5987;SDS011;3021;51.000;6.980;2023-02-01T07:32:41;19.77;;;5.13;;
5987;SDS011;3021;51.000;6.980;2023-02-01T07:35:07;20.55;;;5.75;;
5987;SDS011;3021;51.000;6.980;2023-02-01T07:37:32;20.70;;;4.70;;
5987;SDS011;3021;51.000;6.980;2023-02-01T07:39:58;24.70;;;5.15;;
5987;SDS011;3021;51.000;6.980;2023-02-01T07:42:23;20.73;;;4.40;;
5987;SDS011;3021;51.000;6.980;2023-02-01T07:44:48;23.77;;;4.95;;
5987;SDS011;3021;51.000;6.980;2023-02-01T07:47:14;17.80;;;4.15;;
5987;SDS011;3021;51.000;6.980;2023-02-01T07:49:39;33.20;;;8.80;;
5987;SDS011;3021;51.000;6.980;2023-02-01T07:52:04;30.52;;;5.00;;
5987;SDS011;3021;51.000;6.980;2023-02-01T07:54:30;18.13;;;4.30;;
5987;SDS011;3021;51.000;6.980;2023-02-01T07:56:55;27.15;;;4.65;;
5987;SDS011;3021;51.000;6.980;2023-02-01T07:59:21;22.40;;;5.03;;
5987;SDS011;3021;51.000;6.980;2023-02-01T08:01:46;31.25;;;5.88;;
5987;SDS011;3021;51.000;6.980;2023-02-01T08:04:12;28.40;;;4.63;;
5987;SDS011;3021;51.000;6.980;2023-02-01T08:06:38;22.27;;;5.43;;
5987;SDS011;3021;51.000;6.980;2023-02-01T08:09:04;22.33;;;4.57;;
5987;SDS011;3021;51.000;6.980;2023-02-01T08:11:30;19.63;;;4.55;;
5987;SDS011;3021;51.000;6.980;2023-02-01T08:13:57;32.40;;;4.88;;
5987;SDS011;3021;51.000;6.980;2023-02-01T08:16:23;18.10;;;4.13;;
5987;SDS011;3021;51.000;6.980;2023-02-01T08:18:49;20.30;;;4.40;;
5987;SDS011;3021;51.000;6.980;2023-02-01T08:21:20;26.30;;;4.97;;
5987;SDS011;3021;51.000;6.980;2023-02-01T08:23:47;22.58;;;5.22;;
5987;SDS011;3021;51.000;6.980;2023-02-01T08:26:20;19.92;;;4.72;;
5987;SDS011;3021;51.000;6.980;2023-02-01T08:28:48;24.98;;;5.78;;
5987;SDS011;3021;51.000;6.980;2023-02-01T08:31:17;27.88;;;5.93;;
5987;SDS011;3021;51.000;6.980;2023-02-01T08:33:48;25.42;;;4.65;;
5987;SDS011;3021;51.000;6.980;2023-02-01T08:36:15;31.55;;;5.32;;
5987;SDS011;3021;51.000;6.980;2023-02-01T08:38:41;16.30;;;4.30;;
5987;SDS011;3021;51.000;6.980;2023-02-01T08:41:07;21.80;;;4.40;;
5987;SDS011;3021;51.000;6.980;2023-02-01T08:43:37;36.08;;;4.90;;
5987;SDS011;3021;51.000;6.980;2023-02-01T08:46:03;33.03;;;5.32;;
5987;SDS011;3021;51.000;6.980;2023-02-01T08:48:30;26.25;;;5.57;;
5987;SDS011;3021;51.000;6.980;2023-02-01T08:50:56;22.17;;;4.28;;
5987;SDS011;3021;51.000;6.980;2023-02-01T08:53:22;23.17;;;5.25;;
5987;SDS011;3021;51.000;6.980;2023-02-01T08:55:47;28.00;;;4.63;;
5987;SDS011;3021;51.000;6.980;2023-02-01T08:58:13;23.33;;;4.78;;
5987;SDS011;3021;51.000;6.980;2023-02-01T09:00:39;25.75;;;4.30;;
5987;SDS011;3021;51.000;6.980;2023-02-01T09:03:05;18.00;;;4.35;;
5987;SDS011;3021;51.000;6.980;2023-02-01T09:05:30;18.58;;;5.03;;
5987;SDS011;3021;51.000;6.980;2023-02-01T09:07:56;25.70;;;4.25;;
5987;SDS011;3021;51.000;6.980;2023-02-01T09:10:21;25.73;;;4.82;;
5987;SDS011;3021;51.000;6.980;2023-02-01T09:12:47;30.52;;;4.85;;
5987;SDS011;3021;51.000;6.980;2023-02-01T09:15:12;29.73;;;5.40;;
5987;SDS011;3021;51.000;6.980;2023-02-01T09:17:38;24.15;;;4.65;;
5987;SDS011;3021;51.000;6.980;2023-02-01T09:20:03;35.30;;;5.43;;
5987;SDS011;3021;51.000;6.980;2023-02-01T09:22:29;23.52;;;5.53;;
5987;SDS011;3021;51.000;6.980;2023-02-01T09:24:54;20.35;;;4.68;;
5987;SDS011;3021;51.000;6.980;2023-02-01T09:27:20;22.92;;;4.88;;
5987;SDS011;3021;51.000;6.980;2023-02-01T09:29:45;24.15;;;3.95;;
5987;SDS011;3021;51.000;6.980;2023-02-01T09:32:17;28.05;;;5.80;;
5987;SDS011;3021;51.000;6.980;2023-02-01T09:34:42;32.40;;;5.30;;
5987;SDS011;3021;51.000;6.980;2023-02-01T09:37:07;20.10;;;3.90;;
5987;SDS011;3021;51.000;6.980;2023-02-01T09:39:33;25.55;;;4.70;;
5987;SDS011;3021;51.000;6.980;2023-02-01T09:47:51;17.87;;;5.20;;
5987;SDS011;3021;51.000;6.980;2023-02-01T09:50:21;27.73;;;5.18;;
5987;SDS011;3021;51.000;6.980;2023-02-01T10:00:52;19.55;;;4.55;;
5987;SDS011;3021;51.000;6.980;2023-02-01T10:03:19;25.27;;;4.60;;
5987;SDS011;3021;51.000;6.980;2023-02-01T10:10:51;19.15;;;5.03;;
5987;SDS011;3021;51.000;6.980;2023-02-01T10:18:45;26.85;;;5.10;;
5987;SDS011;3021;51.000;6.980;2023-02-01T10:24:28;27.00;;;4.65;;
5987;SDS011;3021;51.000;6.980;2023-02-01T10:27:33;20.80;;;4.38;;
5987;SDS011;3021;51.000;6.980;2023-02-01T10:30:04;21.50;;;4.90;;
5987;SDS011;3021;51.000;6.980;2023-02-01T10:32:39;20.08;;;4.60;;
5987;SDS011;3021;51.000;6.980;2023-02-01T10:35:13;20.02;;;4.25;;
5987;SDS011;3021;51.000;6.980;2023-02-01T10:37:46;20.05;;;4.32;;
5987;SDS011;3021;51.000;6.980;2023-02-01T10:42:54;21.38;;;4.63;;
5987;SDS011;3021;51.000;6.980;2023-02-01T10:45:24;14.73;;;3.63;;
5987;SDS011;3021;51.000;6.980;2023-02-01T10:47:52;19.17;;;4.43;;
5987;SDS011;3021;51.000;6.980;2023-02-01T10:53:10;12.80;;;4.03;;
5987;SDS011;3021;51.000;6.980;2023-02-01T10:55:50;15.48;;;4.13;;
5987;SDS011;3021;51.000;6.980;2023-02-01T10:58:20;20.38;;;4.93;;
5987;SDS011;3021;51.000;6.980;2023-02-01T11:00:53;19.58;;;4.45;;
5987;SDS011;3021;51.000;6.980;2023-02-01T11:08:34;21.30;;;4.03;;
5987;SDS011;3021;51.000;6.980;2023-02-01T11:11:16;22.38;;;4.60;;
5987;SDS011;3021;51.000;6.980;2023-02-01T11:13:42;21.92;;;4.65;;
5987;SDS011;3021;51.000;6.980;2023-02-01T11:16:11;17.50;;;4.00;;
5987;SDS011;3021;51.000;6.980;2023-02-01T11:18:39;29.35;;;5.63;;
5987;SDS011;3021;51.000;6.980;2023-02-01T11:21:05;26.40;;;4.68;;
5987;SDS011;3021;51.000;6.980;2023-02-01T11:23:32;19.95;;;4.93;;
5987;SDS011;3021;51.000;6.980;2023-02-01T11:26:00;22.10;;;4.60;;
5987;SDS011;3021;51.000;6.980;2023-02-01T11:28:31;23.35;;;4.93;;
5987;SDS011;3021;51.000;6.980;2023-02-01T11:30:59;20.30;;;4.97;;
5987;SDS011;3021;51.000;6.980;2023-02-01T11:33:30;25.88;;;4.60;;
5987;SDS011;3021;51.000;6.980;2023-02-01T11:36:00;23.58;;;5.70;;
5987;SDS011;3021;51.000;6.980;2023-02-01T11:38:32;14.23;;;4.43;;
5987;SDS011;3021;51.000;6.980;2023-02-01T11:41:11;22.83;;;4.60;;
5987;SDS011;3021;51.000;6.980;2023-02-01T11:44:15;15.30;;;4.38;;
5987;SDS011;3021;51.000;6.980;2023-02-01T11:46:47;25.70;;;5.10;;
5987;SDS011;3021;51.000;6.980;2023-02-01T11:49:34;22.33;;;4.20;;
5987;SDS011;3021;51.000;6.980;2023-02-01T12:03:28;20.77;;;4.65;;
5987;SDS011;3021;51.000;6.980;2023-02-01T12:21:59;24.90;;;5.00;;
5987;SDS011;3021;51.000;6.980;2023-02-01T12:32:59;23.65;;;4.40;;
5987;SDS011;3021;51.000;6.980;2023-02-01T12:38:14;21.40;;;4.13;;
5987;SDS011;3021;51.000;6.980;2023-02-01T12:43:40;17.25;;;4.95;;
5987;SDS011;3021;51.000;6.980;2023-02-01T12:46:14;13.23;;;3.78;;
5987;SDS011;3021;51.000;6.980;2023-02-01T12:51:20;17.55;;;3.88;;
5987;SDS011;3021;51.000;6.980;2023-02-01T12:59:01;25.90;;;4.72;;
5987;SDS011;3021;51.000;6.980;2023-02-01T13:04:38;13.07;;;3.72;;
5987;SDS011;3021;51.000;6.980;2023-02-01T13:07:21;23.63;;;4.35;;
5987;SDS011;3021;51.000;6.980;2023-02-01T13:10:29;18.38;;;4.13;;
5987;SDS011;3021;51.000;6.980;2023-02-01T13:15:58;20.73;;;4.05;;
5987;SDS011;3021;51.000;6.980;2023-02-01T13:18:32;16.13;;;3.55;;
5987;SDS011;3021;51.000;6.980;2023-02-01T13:21:06;16.83;;;3.42;;
5987;SDS011;3021;51.000;6.980;2023-02-01T13:23:39;21.77;;;3.95;;
5987;SDS011;3021;51.000;6.980;2023-02-01T13:26:08;16.27;;;3.95;;
5987;SDS011;3021;51.000;6.980;2023-02-01T13:44:42;15.75;;;3.75;;
5987;SDS011;3021;51.000;6.980;2023-02-01T13:47:25;16.55;;;3.88;;
5987;SDS011;3021;51.000;6.980;2023-02-01T13:49:54;15.30;;;3.67;;
5987;SDS011;3021;51.000;6.980;2023-02-01T13:52:42;21.92;;;4.40;;
5987;SDS011;3021;51.000;6.980;2023-02-01T13:57:38;22.40;;;3.40;;
5987;SDS011;3021;51.000;6.980;2023-02-01T14:23:40;13.77;;;3.55;;
5987;SDS011;3021;51.000;6.980;2023-02-01T14:26:08;13.68;;;3.53;;
5987;SDS011;3021;51.000;6.980;2023-02-01T14:28:36;16.27;;;3.67;;
5987;SDS011;3021;51.000;6.980;2023-02-01T14:31:17;10.30;;;2.78;;
5987;SDS011;3021;51.000;6.980;2023-02-01T14:33:57;26.33;;;4.90;;
5987;SDS011;3021;51.000;6.980;2023-02-01T14:36:25;13.23;;;3.10;;
5987;SDS011;3021;51.000;6.980;2023-02-01T14:39:03;17.05;;;3.55;;
5987;SDS011;3021;51.000;6.980;2023-02-01T14:41:32;14.20;;;3.45;;
5987;SDS011;3021;51.000;6.980;2023-02-01T14:49:34;9.75;;;2.47;;
5987;SDS011;3021;51.000;6.980;2023-02-01T14:52:09;20.17;;;4.18;;
5987;SDS011;3021;51.000;6.980;2023-02-01T14:54:39;18.52;;;3.85;;
5987;SDS011;3021;51.000;6.980;2023-02-01T14:57:04;15.75;;;3.58;;
5987;SDS011;3021;51.000;6.980;2023-02-01T14:59:35;15.15;;;3.28;;
5987;SDS011;3021;51.000;6.980;2023-02-01T15:02:01;14.07;;;3.35;;
5987;SDS011;3021;51.000;6.980;2023-02-01T15:04:42;16.52;;;3.40;;
5987;SDS011;3021;51.000;6.980;2023-02-01T15:07:11;16.23;;;3.63;;
5987;SDS011;3021;51.000;6.980;2023-02-01T15:09:41;17.95;;;4.35;;
5987;SDS011;3021;51.000;6.980;2023-02-01T15:14:40;20.10;;;4.07;;
5987;SDS011;3021;51.000;6.980;2023-02-01T15:17:20;22.17;;;5.22;;
5987;SDS011;3021;51.000;6.980;2023-02-01T15:19:53;16.58;;;3.47;;
5987;SDS011;3021;51.000;6.980;2023-02-01T15:22:26;17.83;;;5.20;;
5987;SDS011;3021;51.000;6.980;2023-02-01T15:24:53;14.38;;;4.38;;
5987;SDS011;3021;51.000;6.980;2023-02-01T15:27:20;13.73;;;3.58;;
5987;SDS011;3021;51.000;6.980;2023-02-01T15:29:46;19.27;;;3.97;;
5987;SDS011;3021;51.000;6.980;2023-02-01T15:35:03;21.60;;;4.32;;
5987;SDS011;3021;51.000;6.980;2023-02-01T15:37:30;19.02;;;4.05;;
5987;SDS011;3021;51.000;6.980;2023-02-01T15:42:55;18.75;;;3.60;;
5987;SDS011;3021;51.000;6.980;2023-02-01T15:45:27;24.27;;;4.53;;
5987;SDS011;3021;51.000;6.980;2023-02-01T15:47:55;20.70;;;4.15;;
5987;SDS011;3021;51.000;6.980;2023-02-01T15:50:22;15.52;;;3.42;;
5987;SDS011;3021;51.000;6.980;2023-02-01T15:52:49;15.93;;;4.03;;
5987;SDS011;3021;51.000;6.980;2023-02-01T15:55:18;21.50;;;3.40;;
5987;SDS011;3021;51.000;6.980;2023-02-01T15:58:05;19.55;;;3.10;;
5987;SDS011;3021;51.000;6.980;2023-02-01T16:00:35;19.73;;;4.63;;
5987;SDS011;3021;51.000;6.980;2023-02-01T16:06:00;17.75;;;3.90;;
5987;SDS011;3021;51.000;6.980;2023-02-01T16:08:28;17.70;;;3.70;;
5987;SDS011;3021;51.000;6.980;2023-02-01T16:11:00;21.58;;;4.38;;
5987;SDS011;3021;51.000;6.980;2023-02-01T16:13:39;24.35;;;4.85;;
5987;SDS011;3021;51.000;6.980;2023-02-01T16:16:06;18.27;;;3.97;;
5987;SDS011;3021;51.000;6.980;2023-02-01T16:18:38;14.82;;;3.50;;
5987;SDS011;3021;51.000;6.980;2023-02-01T16:21:04;14.75;;;3.17;;
5987;SDS011;3021;51.000;6.980;2023-02-01T16:23:30;13.32;;;3.65;;
5987;SDS011;3021;51.000;6.980;2023-02-01T16:25:55;21.92;;;3.67;;
5987;SDS011;3021;51.000;6.980;2023-02-01T16:28:20;26.38;;;4.93;;
5987;SDS011;3021;51.000;6.980;2023-02-01T16:30:47;21.10;;;6.53;;
5987;SDS011;3021;51.000;6.980;2023-02-01T16:33:15;19.85;;;4.10;;
5987;SDS011;3021;51.000;6.980;2023-02-01T16:35:44;16.85;;;3.83;;
5987;SDS011;3021;51.000;6.980;2023-02-01T16:38:14;16.52;;;3.50;;
5987;SDS011;3021;51.000;6.980;2023-02-01T16:40:43;14.53;;;3.50;;
5987;SDS011;3021;51.000;6.980;2023-02-01T16:43:23;14.73;;;3.88;;
5987;SDS011;3021;51.000;6.980;2023-02-01T16:45:51;15.27;;;3.58;;
5987;SDS011;3021;51.000;6.980;2023-02-01T16:50:52;13.15;;;4.22;;
5987;SDS011;3021;51.000;6.980;2023-02-01T16:53:20;20.08;;;4.20;;
5987;SDS011;3021;51.000;6.980;2023-02-01T16:55:46;14.40;;;3.80;;
5987;SDS011;3021;51.000;6.980;2023-02-01T16:58:14;25.38;;;4.90;;
5987;SDS011;3021;51.000;6.980;2023-02-01T17:00:40;22.90;;;4.85;;
5987;SDS011;3021;51.000;6.980;2023-02-01T17:03:06;20.27;;;4.22;;
5987;SDS011;3021;51.000;6.980;2023-02-01T17:05:32;15.57;;;4.82;;
5987;SDS011;3021;51.000;6.980;2023-02-01T17:07:59;23.00;;;4.00;;
5987;SDS011;3021;51.000;6.980;2023-02-01T17:10:29;19.45;;;4.47;;
5987;SDS011;3021;51.000;6.980;2023-02-01T17:12:54;19.30;;;3.95;;
5987;SDS011;3021;51.000;6.980;2023-02-01T17:15:21;21.02;;;3.85;;
5987;SDS011;3021;51.000;6.980;2023-02-01T17:17:47;20.23;;;4.45;;
5987;SDS011;3021;51.000;6.980;2023-02-01T17:22:45;21.73;;;4.22;;
5987;SDS011;3021;51.000;6.980;2023-02-01T17:25:16;19.70;;;4.10;;
5987;SDS011;3021;51.000;6.980;2023-02-01T17:27:42;18.45;;;4.93;;
5987;SDS011;3021;51.000;6.980;2023-02-01T17:30:09;20.92;;;4.53;;
5987;SDS011;3021;51.000;6.980;2023-02-01T17:32:35;19.90;;;3.78;;
5987;SDS011;3021;51.000;6.980;2023-02-01T17:35:01;18.60;;;4.28;;
5987;SDS011;3021;51.000;6.980;2023-02-01T17:37:30;23.65;;;5.10;;
5987;SDS011;3021;51.000;6.980;2023-02-01T17:39:57;24.02;;;3.85;;
5987;SDS011;3021;51.000;6.980;2023-02-01T17:42:24;19.08;;;3.75;;
5987;SDS011;3021;51.000;6.980;2023-02-01T17:44:51;19.08;;;4.00;;
5987;SDS011;3021;51.000;6.980;2023-02-01T17:47:20;20.42;;;4.88;;
5987;SDS011;3021;51.000;6.980;2023-02-01T17:49:45;19.73;;;4.72;;
5987;SDS011;3021;51.000;6.980;2023-02-01T17:52:14;15.90;;;4.40;;
5987;SDS011;3021;51.000;6.980;2023-02-01T17:54:42;22.75;;;4.22;;
5987;SDS011;3021;51.000;6.980;2023-02-01T17:57:13;20.58;;;4.60;;
5987;SDS011;3021;51.000;6.980;2023-02-01T17:59:39;12.48;;;3.95;;
5987;SDS011;3021;51.000;6.980;2023-02-01T18:02:11;18.48;;;3.90;;
5987;SDS011;3021;51.000;6.980;2023-02-01T18:04:47;25.15;;;4.97;;
5987;SDS011;3021;51.000;6.980;2023-02-01T18:07:14;20.20;;;4.35;;
5987;SDS011;3021;51.000;6.980;2023-02-01T18:09:39;18.33;;;3.35;;
5987;SDS011;3021;51.000;6.980;2023-02-01T18:12:05;25.73;;;3.67;;
5987;SDS011;3021;51.000;6.980;2023-02-01T18:14:31;13.88;;;3.85;;
5987;SDS011;3021;51.000;6.980;2023-02-01T18:16:57;22.05;;;4.53;;
5987;SDS011;3021;51.000;6.980;2023-02-01T18:19:22;22.70;;;5.05;;
5987;SDS011;3021;51.000;6.980;2023-02-01T18:21:48;21.50;;;4.35;;